Nearby METAR Reports

 

KPRB - Paso Robles, California, USA
Distance from station: SW 1mi, 1km
Updated: 05/03/2016 10:53am
Clear
Clear
 Wind from W
Wind: W 5 mph , 7 km/h
Temperature: 70°F , 21°C
Dew Point: 48°F , 9°C
Humidity: 46%
Barometer: 29.97 inHg , 1014.9 hPa
Clouds: Clear
Visibility: 10 miles , 16 km
2016/05/03 17:53 KPRB 031753Z AUTO 28004KT 10SM CLR 21/09 A2997 RMK AO2 SLP145 T02110094 10211 20078 58010 TSNO
KSBP - San Luis Obispo, California, USA
Distance from station: S 30mi, 49km
Updated: 05/03/2016 10:56am
Overcast
Overcast
 Wind from calm
Wind: Calm
Temperature: 66°F , 19°C
Dew Point: 54°F , 12°C
Humidity: 64%
Barometer: 29.99 inHg , 1015.6 hPa
Clouds: Overcast
Visibility: 10 miles , 16 km
Cloud details: Overcast 15000 ft
2016/05/03 17:56 KSBP 031756Z 00000KT 10SM OVC150 19/12 A2999 RMK AO2 SLP155 T01940117 10194 20122 51002
 
KSMX - Santa Maria, California, USA
Distance from station: S 54mi, 87km
Updated: 05/03/2016 10:51am
Clear
Clear
 Wind from WNW
Wind: WNW 5 mph , 7 km/h
Temperature: 63°F , 17°C
Dew Point: 54°F , 12°C
Humidity: 73%
Barometer: 30.00 inHg , 1015.9 hPa
Clouds: Clear
Visibility: 9 miles , 14 km
2016/05/03 17:51 KSMX 031751Z AUTO 30004KT 9SM CLR 17/12 A3000 RMK AO2 SLP160 T01720122 10172 20106 58001
KNLC - Lemoore Nas/Reev, California, USA
Distance from station: NE 58mi, 94km
Updated: 05/03/2016 10:56am
Overcast
Overcast
 Wind from WNW
Wind: WNW 7 mph , 11 km/h
Temperature: 77°F , 25°C
Dew Point: 48°F , 9°C
Humidity: 36%
Barometer: 29.97 inHg , 1014.9 hPa
Clouds: Overcast
Visibility: 10 miles , 16 km
Cloud details: Mostly cloudy 18000 ft
Overcast 22000 ft
2016/05/03 17:56 KNLC 031756Z 30006KT 10SM BKN180 OVC220 25/09 A2997 RMK AO2 SLP148 RH/38 T02500089 10250 20117 58002
 
KVBG - Vandenberg Afb, California, USA
Distance from station: S 65mi, 105km
Updated: 05/03/2016 10:55am
Mist, Overcast
Mist, Overcast
 Wind from varies
Wind: varies 7 mph , 11 km/h
Temperature: 55°F , 13°C
Dew Point: 45°F , 7°C
Humidity: 67%
Barometer: 30.00 inHg , 1015.9 hPa
Summary: Mist
Clouds: Overcast
Visibility: 5 miles , 8 km
Cloud details: Mostly cloudy 600 ft
Mostly cloudy 2500 ft
Overcast 30000 ft
2016/05/03 17:55 KVBG 031755Z VRB06KT 5SM BR BKN006 BKN025 OVC300 13/07 A3000 RMK AO2A SLP164 T01330074 10133 20075 53002
KLPC - Lompoc, California, USA
Distance from station: S 70mi, 113km
Updated: 05/03/2016 10:56am
Clear
Clear
 Wind from W
Wind: W 9 mph , 15 km/h
Temperature: 61°F , 16°C
Dew Point: 54°F , 12°C
Humidity: 77%
Barometer: 30.00 inHg , 1015.9 hPa
Clouds: Clear
Visibility: 10 miles , 16 km
2016/05/03 17:56 KLPC 031756Z AUTO 27008KT 10SM CLR 16/12 A3000 RMK AO2 SLP163 T01610122 10161 20083 55003
 
KHJO - Hanford, California, USA
Distance from station: NE 72mi, 116km
Updated: 05/03/2016 10:53am
Clear
Clear
 Wind from calm
Wind: Calm
Temperature: 73°F , 23°C
Dew Point: 50°F , 10°C
Humidity: 44%
Barometer: 29.97 inHg , 1014.9 hPa
Clouds: Clear
Visibility: 10 miles , 16 km
2016/05/03 17:53 KHJO 031753Z AUTO 00000KT 10SM CLR 23/10 A2997 RMK AO2 SLP150 T02330100 10233 20122 58000